Loretto, Michigan
Current Conditions -  °F | °C
As of 2:40 PM on Monday 22 Dec 2014 (Local Time) from KIMT Reporting Station
Haze Haze  
Wind Chill: 27°   Ceiling: 600
Heat Index: 34°   Visibility: 3mi
Dew Point: 31°   Wind: 8mph
Humidity: 89%   Direction: 140°SE
Pressure: 29.82"   Gusts: NA
Location:  45.78°N, 87.81°W
Report Text: KIMT 222040Z AUTO 14007KT 3SM BR OVC006 01/M01 A2982 RMK AO2 T00111006
Loading
Personal Weather Stations






























Interactive Weather Map New forecast layout! Learn more

10-Day Weather Forecast

Advertisements
Track Severe Weather on mobile